sensor_id;sensor_type;location;lat;lon;timestamp;P1;durP1;ratioP1;P2;durP2;ratioP2
59960;SDS011;55902;-37.980;-63.602;2022-08-24T00:01:38;11.57;;;6.43;;
59960;SDS011;55902;-37.980;-63.602;2022-08-24T00:04:05;9.07;;;5.88;;
59960;SDS011;55902;-37.980;-63.602;2022-08-24T00:06:31;13.20;;;6.25;;
59960;SDS011;55902;-37.980;-63.602;2022-08-24T00:09:03;9.27;;;6.00;;
59960;SDS011;55902;-37.980;-63.602;2022-08-24T00:11:30;11.45;;;7.45;;
59960;SDS011;55902;-37.980;-63.602;2022-08-24T00:13:59;16.90;;;8.35;;
59960;SDS011;55902;-37.980;-63.602;2022-08-24T00:16:26;11.23;;;5.40;;
59960;SDS011;55902;-37.980;-63.602;2022-08-24T00:18:57;11.45;;;7.07;;
59960;SDS011;55902;-37.980;-63.602;2022-08-24T00:21:28;12.50;;;7.28;;
59960;SDS011;55902;-37.980;-63.602;2022-08-24T00:23:57;10.48;;;6.18;;
59960;SDS011;55902;-37.980;-63.602;2022-08-24T00:26:23;13.25;;;5.80;;
59960;SDS011;55902;-37.980;-63.602;2022-08-24T00:28:55;11.48;;;5.68;;
59960;SDS011;55902;-37.980;-63.602;2022-08-24T00:31:22;7.80;;;5.45;;
59960;SDS011;55902;-37.980;-63.602;2022-08-24T00:33:49;11.35;;;5.55;;
59960;SDS011;55902;-37.980;-63.602;2022-08-24T00:36:16;10.40;;;5.38;;
59960;SDS011;55902;-37.980;-63.602;2022-08-24T00:38:46;9.25;;;5.38;;
59960;SDS011;55902;-37.980;-63.602;2022-08-24T00:41:16;9.20;;;5.32;;
59960;SDS011;55902;-37.980;-63.602;2022-08-24T00:43:57;10.07;;;5.13;;
59960;SDS011;55902;-37.980;-63.602;2022-08-24T00:55:13;9.43;;;4.70;;
59960;SDS011;55902;-37.980;-63.602;2022-08-24T00:57:53;9.25;;;4.70;;
59960;SDS011;55902;-37.980;-63.602;2022-08-24T01:00:25;8.07;;;4.68;;
59960;SDS011;55902;-37.980;-63.602;2022-08-24T01:03:01;7.82;;;4.53;;
59960;SDS011;55902;-37.980;-63.602;2022-08-24T01:05:34;10.23;;;4.50;;
59960;SDS011;55902;-37.980;-63.602;2022-08-24T01:08:03;8.38;;;4.45;;
59960;SDS011;55902;-37.980;-63.602;2022-08-24T01:10:35;8.85;;;4.50;;
59960;SDS011;55902;-37.980;-63.602;2022-08-24T01:13:06;6.67;;;4.20;;
59960;SDS011;55902;-37.980;-63.602;2022-08-24T01:15:40;6.75;;;4.20;;
59960;SDS011;55902;-37.980;-63.602;2022-08-24T01:18:14;11.18;;;5.00;;
59960;SDS011;55902;-37.980;-63.602;2022-08-24T01:23:39;9.70;;;4.53;;
59960;SDS011;55902;-37.980;-63.602;2022-08-24T01:26:16;8.77;;;4.53;;
59960;SDS011;55902;-37.980;-63.602;2022-08-24T01:28:50;14.20;;;4.40;;
59960;SDS011;55902;-37.980;-63.602;2022-08-24T01:31:28;10.63;;;4.10;;
59960;SDS011;55902;-37.980;-63.602;2022-08-24T01:33:56;6.90;;;4.18;;
59960;SDS011;55902;-37.980;-63.602;2022-08-24T01:36:29;6.78;;;4.28;;
59960;SDS011;55902;-37.980;-63.602;2022-08-24T01:39:15;10.48;;;4.07;;
59960;SDS011;55902;-37.980;-63.602;2022-08-24T01:41:47;7.63;;;4.13;;
59960;SDS011;55902;-37.980;-63.602;2022-08-24T01:44:15;8.18;;;4.20;;
59960;SDS011;55902;-37.980;-63.602;2022-08-24T01:46:47;8.00;;;4.90;;
59960;SDS011;55902;-37.980;-63.602;2022-08-24T01:49:22;9.05;;;5.00;;
59960;SDS011;55902;-37.980;-63.602;2022-08-24T01:51:54;8.60;;;4.90;;
59960;SDS011;55902;-37.980;-63.602;2022-08-24T01:54:26;9.13;;;5.00;;
59960;SDS011;55902;-37.980;-63.602;2022-08-24T01:56:53;8.77;;;4.75;;
59960;SDS011;55902;-37.980;-63.602;2022-08-24T01:59:22;7.70;;;4.50;;
59960;SDS011;55902;-37.980;-63.602;2022-08-24T02:01:51;8.77;;;4.10;;
59960;SDS011;55902;-37.980;-63.602;2022-08-24T02:04:22;8.63;;;4.43;;
59960;SDS011;55902;-37.980;-63.602;2022-08-24T02:06:53;6.05;;;4.40;;
59960;SDS011;55902;-37.980;-63.602;2022-08-24T02:09:20;10.88;;;5.10;;
59960;SDS011;55902;-37.980;-63.602;2022-08-24T02:11:48;6.13;;;4.95;;
59960;SDS011;55902;-37.980;-63.602;2022-08-24T02:14:38;7.75;;;4.40;;
59960;SDS011;55902;-37.980;-63.602;2022-08-24T02:17:06;8.48;;;4.53;;
59960;SDS011;55902;-37.980;-63.602;2022-08-24T02:19:38;6.57;;;4.10;;
59960;SDS011;55902;-37.980;-63.602;2022-08-24T02:22:06;8.55;;;4.40;;
59960;SDS011;55902;-37.980;-63.602;2022-08-24T02:24:33;7.38;;;4.80;;
59960;SDS011;55902;-37.980;-63.602;2022-08-24T02:27:00;9.40;;;4.15;;
59960;SDS011;55902;-37.980;-63.602;2022-08-24T02:29:31;6.28;;;4.13;;
59960;SDS011;55902;-37.980;-63.602;2022-08-24T02:31:58;6.72;;;4.50;;
59960;SDS011;55902;-37.980;-63.602;2022-08-24T02:34:25;8.10;;;4.25;;
59960;SDS011;55902;-37.980;-63.602;2022-08-24T02:36:56;6.28;;;4.13;;
59960;SDS011;55902;-37.980;-63.602;2022-08-24T02:39:23;7.50;;;4.70;;
59960;SDS011;55902;-37.980;-63.602;2022-08-24T02:41:50;9.90;;;4.30;;
59960;SDS011;55902;-37.980;-63.602;2022-08-24T02:44:17;6.65;;;4.55;;
59960;SDS011;55902;-37.980;-63.602;2022-08-24T02:46:49;5.10;;;4.03;;
59960;SDS011;55902;-37.980;-63.602;2022-08-24T02:49:16;7.43;;;4.15;;
59960;SDS011;55902;-37.980;-63.602;2022-08-24T02:51:46;7.50;;;4.40;;
59960;SDS011;55902;-37.980;-63.602;2022-08-24T02:54:14;6.75;;;4.90;;
59960;SDS011;55902;-37.980;-63.602;2022-08-24T02:56:44;5.75;;;4.20;;
59960;SDS011;55902;-37.980;-63.602;2022-08-24T02:59:11;10.73;;;6.20;;
59960;SDS011;55902;-37.980;-63.602;2022-08-24T03:01:44;11.82;;;5.05;;
59960;SDS011;55902;-37.980;-63.602;2022-08-24T03:04:11;8.93;;;4.57;;
59960;SDS011;55902;-37.980;-63.602;2022-08-24T03:06:41;8.52;;;4.72;;
59960;SDS011;55902;-37.980;-63.602;2022-08-24T03:09:13;6.00;;;4.00;;
59960;SDS011;55902;-37.980;-63.602;2022-08-24T03:11:40;6.00;;;4.32;;
59960;SDS011;55902;-37.980;-63.602;2022-08-24T03:14:11;9.15;;;4.65;;
59960;SDS011;55902;-37.980;-63.602;2022-08-24T03:16:38;6.35;;;4.20;;
59960;SDS011;55902;-37.980;-63.602;2022-08-24T03:19:05;10.23;;;4.25;;
59960;SDS011;55902;-37.980;-63.602;2022-08-24T03:21:35;7.72;;;4.30;;
59960;SDS011;55902;-37.980;-63.602;2022-08-24T03:24:06;5.72;;;4.25;;
59960;SDS011;55902;-37.980;-63.602;2022-08-24T03:26:34;7.45;;;4.80;;
59960;SDS011;55902;-37.980;-63.602;2022-08-24T03:29:04;11.07;;;6.78;;
59960;SDS011;55902;-37.980;-63.602;2022-08-24T03:31:31;9.05;;;5.35;;
59960;SDS011;55902;-37.980;-63.602;2022-08-24T03:33:59;12.02;;;6.45;;
59960;SDS011;55902;-37.980;-63.602;2022-08-24T03:36:26;10.77;;;5.32;;
59960;SDS011;55902;-37.980;-63.602;2022-08-24T03:38:55;7.45;;;4.63;;
59960;SDS011;55902;-37.980;-63.602;2022-08-24T03:41:22;9.02;;;5.05;;
59960;SDS011;55902;-37.980;-63.602;2022-08-24T03:43:49;7.65;;;4.55;;
59960;SDS011;55902;-37.980;-63.602;2022-08-24T03:46:18;8.93;;;4.82;;
59960;SDS011;55902;-37.980;-63.602;2022-08-24T03:48:49;6.00;;;4.75;;
59960;SDS011;55902;-37.980;-63.602;2022-08-24T03:51:19;9.65;;;4.80;;
59960;SDS011;55902;-37.980;-63.602;2022-08-24T03:53:51;6.93;;;4.68;;
59960;SDS011;55902;-37.980;-63.602;2022-08-24T03:56:19;8.50;;;4.90;;
59960;SDS011;55902;-37.980;-63.602;2022-08-24T03:58:46;10.52;;;4.97;;
59960;SDS011;55902;-37.980;-63.602;2022-08-24T04:01:18;8.63;;;4.55;;
59960;SDS011;55902;-37.980;-63.602;2022-08-24T04:03:45;7.88;;;5.18;;
59960;SDS011;55902;-37.980;-63.602;2022-08-24T04:06:16;7.55;;;4.82;;
59960;SDS011;55902;-37.980;-63.602;2022-08-24T04:08:44;8.70;;;4.88;;
59960;SDS011;55902;-37.980;-63.602;2022-08-24T04:11:12;9.63;;;4.88;;
59960;SDS011;55902;-37.980;-63.602;2022-08-24T04:13:44;6.35;;;4.38;;
59960;SDS011;55902;-37.980;-63.602;2022-08-24T04:16:13;11.98;;;4.72;;
59960;SDS011;55902;-37.980;-63.602;2022-08-24T04:18:46;8.55;;;5.03;;
59960;SDS011;55902;-37.980;-63.602;2022-08-24T04:21:21;9.52;;;4.50;;
59960;SDS011;55902;-37.980;-63.602;2022-08-24T04:23:50;8.65;;;4.65;;
59960;SDS011;55902;-37.980;-63.602;2022-08-24T04:26:18;9.82;;;5.00;;
59960;SDS011;55902;-37.980;-63.602;2022-08-24T04:28:51;7.75;;;4.72;;
59960;SDS011;55902;-37.980;-63.602;2022-08-24T04:31:19;5.63;;;4.35;;
59960;SDS011;55902;-37.980;-63.602;2022-08-24T04:33:47;6.53;;;4.32;;
59960;SDS011;55902;-37.980;-63.602;2022-08-24T04:36:14;9.38;;;4.65;;
59960;SDS011;55902;-37.980;-63.602;2022-08-24T04:38:46;9.00;;;4.80;;
59960;SDS011;55902;-37.980;-63.602;2022-08-24T04:41:14;10.38;;;4.72;;
59960;SDS011;55902;-37.980;-63.602;2022-08-24T04:43:48;7.57;;;4.70;;
59960;SDS011;55902;-37.980;-63.602;2022-08-24T04:46:16;10.30;;;4.97;;
59960;SDS011;55902;-37.980;-63.602;2022-08-24T04:48:45;9.93;;;4.90;;
59960;SDS011;55902;-37.980;-63.602;2022-08-24T04:51:16;9.63;;;4.80;;
59960;SDS011;55902;-37.980;-63.602;2022-08-24T04:53:44;5.05;;;3.90;;
59960;SDS011;55902;-37.980;-63.602;2022-08-24T04:56:22;7.00;;;3.80;;
59960;SDS011;55902;-37.980;-63.602;2022-08-24T04:58:50;6.07;;;4.07;;
59960;SDS011;55902;-37.980;-63.602;2022-08-24T05:01:19;9.73;;;4.80;;
59960;SDS011;55902;-37.980;-63.602;2022-08-24T05:03:48;10.30;;;4.80;;
59960;SDS011;55902;-37.980;-63.602;2022-08-24T05:06:20;7.43;;;4.50;;
59960;SDS011;55902;-37.980;-63.602;2022-08-24T05:08:52;7.32;;;4.70;;
59960;SDS011;55902;-37.980;-63.602;2022-08-24T05:11:20;9.82;;;4.72;;
59960;SDS011;55902;-37.980;-63.602;2022-08-24T05:13:50;7.95;;;4.47;;
59960;SDS011;55902;-37.980;-63.602;2022-08-24T05:16:22;9.15;;;4.60;;
59960;SDS011;55902;-37.980;-63.602;2022-08-24T05:18:50;9.57;;;5.32;;
59960;SDS011;55902;-37.980;-63.602;2022-08-24T05:21:20;10.80;;;5.35;;
59960;SDS011;55902;-37.980;-63.602;2022-08-24T05:23:51;8.48;;;4.93;;
59960;SDS011;55902;-37.980;-63.602;2022-08-24T05:26:20;6.72;;;4.60;;
59960;SDS011;55902;-37.980;-63.602;2022-08-24T05:28:52;10.25;;;5.07;;
59960;SDS011;55902;-37.980;-63.602;2022-08-24T05:31:21;13.73;;;5.63;;
59960;SDS011;55902;-37.980;-63.602;2022-08-24T05:33:55;10.30;;;4.85;;
59960;SDS011;55902;-37.980;-63.602;2022-08-24T05:36:25;11.52;;;5.35;;
59960;SDS011;55902;-37.980;-63.602;2022-08-24T05:38:54;7.32;;;5.43;;
59960;SDS011;55902;-37.980;-63.602;2022-08-24T05:41:22;11.32;;;4.97;;
59960;SDS011;55902;-37.980;-63.602;2022-08-24T05:43:50;11.02;;;5.50;;
59960;SDS011;55902;-37.980;-63.602;2022-08-24T05:46:20;10.40;;;5.50;;
59960;SDS011;55902;-37.980;-63.602;2022-08-24T05:48:50;9.05;;;4.82;;
59960;SDS011;55902;-37.980;-63.602;2022-08-24T05:51:18;9.15;;;5.32;;
59960;SDS011;55902;-37.980;-63.602;2022-08-24T05:53:49;8.68;;;5.20;;
59960;SDS011;55902;-37.980;-63.602;2022-08-24T05:56:21;8.30;;;4.63;;
59960;SDS011;55902;-37.980;-63.602;2022-08-24T05:58:48;6.18;;;4.80;;
59960;SDS011;55902;-37.980;-63.602;2022-08-24T06:01:16;8.90;;;4.55;;
59960;SDS011;55902;-37.980;-63.602;2022-08-24T06:03:48;8.77;;;4.50;;
59960;SDS011;55902;-37.980;-63.602;2022-08-24T06:06:16;9.77;;;5.40;;
59960;SDS011;55902;-37.980;-63.602;2022-08-24T06:08:52;10.52;;;5.53;;
59960;SDS011;55902;-37.980;-63.602;2022-08-24T06:11:21;9.95;;;5.35;;
59960;SDS011;55902;-37.980;-63.602;2022-08-24T06:13:54;9.07;;;5.20;;
59960;SDS011;55902;-37.980;-63.602;2022-08-24T06:16:27;7.65;;;4.97;;
59960;SDS011;55902;-37.980;-63.602;2022-08-24T06:18:54;8.98;;;4.97;;
59960;SDS011;55902;-37.980;-63.602;2022-08-24T06:21:23;10.07;;;4.72;;
59960;SDS011;55902;-37.980;-63.602;2022-08-24T06:23:51;9.25;;;5.28;;
59960;SDS011;55902;-37.980;-63.602;2022-08-24T06:26:19;9.65;;;5.10;;
59960;SDS011;55902;-37.980;-63.602;2022-08-24T06:29:05;8.40;;;5.38;;
59960;SDS011;55902;-37.980;-63.602;2022-08-24T06:31:39;7.15;;;4.95;;
59960;SDS011;55902;-37.980;-63.602;2022-08-24T06:34:07;12.30;;;5.63;;
59960;SDS011;55902;-37.980;-63.602;2022-08-24T06:36:38;9.88;;;5.55;;
59960;SDS011;55902;-37.980;-63.602;2022-08-24T06:39:10;11.38;;;5.03;;
59960;SDS011;55902;-37.980;-63.602;2022-08-24T06:41:40;10.27;;;5.30;;
59960;SDS011;55902;-37.980;-63.602;2022-08-24T06:44:10;10.73;;;5.22;;
59960;SDS011;55902;-37.980;-63.602;2022-08-24T06:46:37;11.38;;;5.60;;
59960;SDS011;55902;-37.980;-63.602;2022-08-24T06:49:06;9.95;;;5.53;;
59960;SDS011;55902;-37.980;-63.602;2022-08-24T06:51:33;9.80;;;5.53;;
59960;SDS011;55902;-37.980;-63.602;2022-08-24T06:54:03;10.68;;;5.47;;
59960;SDS011;55902;-37.980;-63.602;2022-08-24T06:56:30;10.82;;;5.57;;
59960;SDS011;55902;-37.980;-63.602;2022-08-24T06:58:57;10.27;;;5.32;;
59960;SDS011;55902;-37.980;-63.602;2022-08-24T07:01:30;8.88;;;5.80;;
59960;SDS011;55902;-37.980;-63.602;2022-08-24T07:03:57;10.32;;;5.72;;
59960;SDS011;55902;-37.980;-63.602;2022-08-24T07:06:28;11.52;;;5.60;;
59960;SDS011;55902;-37.980;-63.602;2022-08-24T07:08:56;9.20;;;5.30;;
59960;SDS011;55902;-37.980;-63.602;2022-08-24T07:11:23;11.13;;;5.35;;
59960;SDS011;55902;-37.980;-63.602;2022-08-24T07:13:54;12.25;;;6.00;;
59960;SDS011;55902;-37.980;-63.602;2022-08-24T07:16:21;8.07;;;5.80;;
59960;SDS011;55902;-37.980;-63.602;2022-08-24T07:18:51;9.98;;;5.45;;
59960;SDS011;55902;-37.980;-63.602;2022-08-24T07:21:18;9.00;;;5.68;;
59960;SDS011;55902;-37.980;-63.602;2022-08-24T07:23:52;8.07;;;5.45;;
59960;SDS011;55902;-37.980;-63.602;2022-08-24T07:26:21;12.18;;;5.68;;
59960;SDS011;55902;-37.980;-63.602;2022-08-24T07:28:54;10.80;;;5.70;;
59960;SDS011;55902;-37.980;-63.602;2022-08-24T07:31:32;8.88;;;5.68;;
59960;SDS011;55902;-37.980;-63.602;2022-08-24T07:34:02;11.15;;;5.70;;
59960;SDS011;55902;-37.980;-63.602;2022-08-24T07:36:30;11.63;;;6.22;;
59960;SDS011;55902;-37.980;-63.602;2022-08-24T07:38:58;8.02;;;5.88;;
59960;SDS011;55902;-37.980;-63.602;2022-08-24T07:41:25;10.70;;;5.95;;
59960;SDS011;55902;-37.980;-63.602;2022-08-24T07:43:55;8.82;;;5.72;;
59960;SDS011;55902;-37.980;-63.602;2022-08-24T07:46:22;11.82;;;5.95;;
59960;SDS011;55902;-37.980;-63.602;2022-08-24T07:48:49;10.43;;;6.10;;
59960;SDS011;55902;-37.980;-63.602;2022-08-24T07:51:16;11.20;;;5.97;;
59960;SDS011;55902;-37.980;-63.602;2022-08-24T07:53:44;11.05;;;5.93;;
59960;SDS011;55902;-37.980;-63.602;2022-08-24T07:56:12;10.63;;;5.82;;
59960;SDS011;55902;-37.980;-63.602;2022-08-24T07:58:38;9.02;;;5.60;;
59960;SDS011;55902;-37.980;-63.602;2022-08-24T08:01:05;10.80;;;5.90;;
59960;SDS011;55902;-37.980;-63.602;2022-08-24T08:03:34;9.98;;;5.90;;
59960;SDS011;55902;-37.980;-63.602;2022-08-24T08:06:05;9.75;;;6.28;;
59960;SDS011;55902;-37.980;-63.602;2022-08-24T08:08:34;8.10;;;5.97;;
59960;SDS011;55902;-37.980;-63.602;2022-08-24T08:11:03;11.55;;;6.88;;
59960;SDS011;55902;-37.980;-63.602;2022-08-24T08:13:31;11.00;;;5.63;;
59960;SDS011;55902;-37.980;-63.602;2022-08-24T08:15:59;11.00;;;6.60;;
59960;SDS011;55902;-37.980;-63.602;2022-08-24T08:18:28;12.13;;;5.95;;
59960;SDS011;55902;-37.980;-63.602;2022-08-24T08:20:55;9.65;;;6.40;;
59960;SDS011;55902;-37.980;-63.602;2022-08-24T08:23:23;11.57;;;6.13;;
59960;SDS011;55902;-37.980;-63.602;2022-08-24T08:26:15;10.25;;;6.50;;
59960;SDS011;55902;-37.980;-63.602;2022-08-24T08:28:45;13.27;;;6.32;;
59960;SDS011;55902;-37.980;-63.602;2022-08-24T08:31:13;11.73;;;6.80;;
59960;SDS011;55902;-37.980;-63.602;2022-08-24T08:33:40;10.55;;;6.07;;
59960;SDS011;55902;-37.980;-63.602;2022-08-24T08:36:09;10.45;;;6.03;;
59960;SDS011;55902;-37.980;-63.602;2022-08-24T08:38:39;12.00;;;6.15;;
59960;SDS011;55902;-37.980;-63.602;2022-08-24T08:52:02;7.85;;;6.00;;
59960;SDS011;55902;-37.980;-63.602;2022-08-24T08:54:58;10.98;;;6.10;;
59960;SDS011;55902;-37.980;-63.602;2022-08-24T09:11:28;11.57;;;6.45;;
59960;SDS011;55902;-37.980;-63.602;2022-08-24T09:14:33;8.80;;;6.15;;
59960;SDS011;55902;-37.980;-63.602;2022-08-24T09:23:29;8.20;;;6.05;;
59960;SDS011;55902;-37.980;-63.602;2022-08-24T09:26:09;9.30;;;6.00;;
59960;SDS011;55902;-37.980;-63.602;2022-08-24T09:28:42;11.75;;;6.90;;
59960;SDS011;55902;-37.980;-63.602;2022-08-24T09:31:20;9.73;;;6.55;;
59960;SDS011;55902;-37.980;-63.602;2022-08-24T09:50:35;10.88;;;6.53;;
59960;SDS011;55902;-37.980;-63.602;2022-08-24T10:01:19;14.93;;;7.53;;
59960;SDS011;55902;-37.980;-63.602;2022-08-24T10:12:33;15.45;;;7.00;;
59960;SDS011;55902;-37.980;-63.602;2022-08-24T10:26:39;12.43;;;6.90;;
59960;SDS011;55902;-37.980;-63.602;2022-08-24T11:49:52;11.90;;;7.15;;
59960;SDS011;55902;-37.980;-63.602;2022-08-24T12:09:53;7.90;;;4.97;;
59960;SDS011;55902;-37.980;-63.602;2022-08-24T12:12:45;6.70;;;4.85;;
59960;SDS011;55902;-37.980;-63.602;2022-08-24T12:18:44;7.78;;;5.15;;
59960;SDS011;55902;-37.980;-63.602;2022-08-24T12:21:13;8.95;;;4.53;;
59960;SDS011;55902;-37.980;-63.602;2022-08-24T12:23:44;7.47;;;5.13;;
59960;SDS011;55902;-37.980;-63.602;2022-08-24T12:29:06;8.00;;;4.78;;
59960;SDS011;55902;-37.980;-63.602;2022-08-24T12:31:54;7.57;;;4.45;;
59960;SDS011;55902;-37.980;-63.602;2022-08-24T12:34:31;5.75;;;4.43;;
59960;SDS011;55902;-37.980;-63.602;2022-08-24T12:43:10;5.65;;;3.80;;
59960;SDS011;55902;-37.980;-63.602;2022-08-24T12:45:53;6.73;;;4.60;;
59960;SDS011;55902;-37.980;-63.602;2022-08-24T12:56:55;6.00;;;3.58;;
59960;SDS011;55902;-37.980;-63.602;2022-08-24T13:02:01;6.53;;;3.80;;
59960;SDS011;55902;-37.980;-63.602;2022-08-24T13:09:45;5.38;;;3.63;;
59960;SDS011;55902;-37.980;-63.602;2022-08-24T13:17:41;6.55;;;3.72;;
59960;SDS011;55902;-37.980;-63.602;2022-08-24T13:20:22;4.15;;;3.10;;
59960;SDS011;55902;-37.980;-63.602;2022-08-24T13:23:36;7.40;;;3.60;;
59960;SDS011;55902;-37.980;-63.602;2022-08-24T13:33:46;5.45;;;3.38;;
59960;SDS011;55902;-37.980;-63.602;2022-08-24T13:45:01;3.65;;;2.80;;
59960;SDS011;55902;-37.980;-63.602;2022-08-24T13:47:57;4.05;;;2.53;;
59960;SDS011;55902;-37.980;-63.602;2022-08-24T13:59:00;2.53;;;2.03;;
59960;SDS011;55902;-37.980;-63.602;2022-08-24T14:01:37;3.50;;;2.00;;
59960;SDS011;55902;-37.980;-63.602;2022-08-24T14:10:13;3.47;;;1.95;;
59960;SDS011;55902;-37.980;-63.602;2022-08-24T14:16:10;3.15;;;1.80;;
59960;SDS011;55902;-37.980;-63.602;2022-08-24T14:19:17;2.35;;;1.60;;
59960;SDS011;55902;-37.980;-63.602;2022-08-24T14:24:38;3.20;;;1.52;;
59960;SDS011;55902;-37.980;-63.602;2022-08-24T14:48:47;3.67;;;1.70;;
59960;SDS011;55902;-37.980;-63.602;2022-08-24T15:00:32;4.22;;;1.50;;
59960;SDS011;55902;-37.980;-63.602;2022-08-24T15:03:27;4.60;;;1.50;;
59960;SDS011;55902;-37.980;-63.602;2022-08-24T15:06:21;3.90;;;1.30;;
59960;SDS011;55902;-37.980;-63.602;2022-08-24T15:09:06;2.17;;;1.30;;
59960;SDS011;55902;-37.980;-63.602;2022-08-24T15:11:35;2.25;;;1.45;;
59960;SDS011;55902;-37.980;-63.602;2022-08-24T15:17:35;1.85;;;1.23;;
59960;SDS011;55902;-37.980;-63.602;2022-08-24T15:20:17;1.63;;;1.00;;
59960;SDS011;55902;-37.980;-63.602;2022-08-24T15:22:58;1.90;;;1.10;;
59960;SDS011;55902;-37.980;-63.602;2022-08-24T15:32:14;2.58;;;1.20;;
59960;SDS011;55902;-37.980;-63.602;2022-08-24T15:37:29;2.85;;;1.20;;
59960;SDS011;55902;-37.980;-63.602;2022-08-24T15:39:59;3.72;;;1.33;;
59960;SDS011;55902;-37.980;-63.602;2022-08-24T15:42:36;3.42;;;1.33;;
59960;SDS011;55902;-37.980;-63.602;2022-08-24T15:45:07;2.45;;;1.10;;
59960;SDS011;55902;-37.980;-63.602;2022-08-24T15:47:58;1.92;;;1.00;;
59960;SDS011;55902;-37.980;-63.602;2022-08-24T15:50:39;2.50;;;1.08;;
59960;SDS011;55902;-37.980;-63.602;2022-08-24T15:59:07;2.78;;;1.10;;
59960;SDS011;55902;-37.980;-63.602;2022-08-24T16:01:38;1.77;;;1.10;;
59960;SDS011;55902;-37.980;-63.602;2022-08-24T16:04:43;2.30;;;1.17;;
59960;SDS011;55902;-37.980;-63.602;2022-08-24T16:07:13;1.50;;;1.00;;
59960;SDS011;55902;-37.980;-63.602;2022-08-24T16:10:07;1.83;;;1.00;;
59960;SDS011;55902;-37.980;-63.602;2022-08-24T16:12:36;2.03;;;1.10;;
59960;SDS011;55902;-37.980;-63.602;2022-08-24T16:15:24;2.22;;;0.90;;
59960;SDS011;55902;-37.980;-63.602;2022-08-24T16:17:54;1.73;;;1.08;;
59960;SDS011;55902;-37.980;-63.602;2022-08-24T16:27:52;1.65;;;0.90;;
59960;SDS011;55902;-37.980;-63.602;2022-08-24T16:30:25;1.95;;;0.90;;
59960;SDS011;55902;-37.980;-63.602;2022-08-24T16:33:04;1.20;;;0.80;;
59960;SDS011;55902;-37.980;-63.602;2022-08-24T16:35:32;3.28;;;0.90;;
59960;SDS011;55902;-37.980;-63.602;2022-08-24T16:38:00;1.80;;;1.15;;
59960;SDS011;55902;-37.980;-63.602;2022-08-24T16:40:28;2.75;;;0.95;;
59960;SDS011;55902;-37.980;-63.602;2022-08-24T16:42:58;3.20;;;0.93;;
59960;SDS011;55902;-37.980;-63.602;2022-08-24T16:45:25;2.72;;;0.98;;
59960;SDS011;55902;-37.980;-63.602;2022-08-24T16:47:52;1.60;;;0.80;;
59960;SDS011;55902;-37.980;-63.602;2022-08-24T16:50:19;2.47;;;0.88;;
59960;SDS011;55902;-37.980;-63.602;2022-08-24T16:52:46;1.50;;;0.90;;
59960;SDS011;55902;-37.980;-63.602;2022-08-24T16:55:13;2.08;;;0.90;;
59960;SDS011;55902;-37.980;-63.602;2022-08-24T16:57:40;1.50;;;0.80;;
59960;SDS011;55902;-37.980;-63.602;2022-08-24T17:00:09;2.30;;;0.80;;
59960;SDS011;55902;-37.980;-63.602;2022-08-24T17:02:40;1.80;;;0.85;;
59960;SDS011;55902;-37.980;-63.602;2022-08-24T17:05:09;1.90;;;1.60;;
59960;SDS011;55902;-37.980;-63.602;2022-08-24T17:07:36;3.65;;;1.50;;
59960;SDS011;55902;-37.980;-63.602;2022-08-24T17:10:52;2.45;;;1.00;;
59960;SDS011;55902;-37.980;-63.602;2022-08-24T17:13:22;1.40;;;0.80;;
59960;SDS011;55902;-37.980;-63.602;2022-08-24T17:15:49;2.92;;;0.93;;
59960;SDS011;55902;-37.980;-63.602;2022-08-24T17:18:16;2.25;;;0.82;;
59960;SDS011;55902;-37.980;-63.602;2022-08-24T17:20:45;3.03;;;0.80;;
59960;SDS011;55902;-37.980;-63.602;2022-08-24T17:23:12;3.28;;;1.00;;
59960;SDS011;55902;-37.980;-63.602;2022-08-24T17:25:40;1.50;;;0.90;;
59960;SDS011;55902;-37.980;-63.602;2022-08-24T17:28:08;1.73;;;1.00;;
59960;SDS011;55902;-37.980;-63.602;2022-08-24T17:30:39;4.65;;;1.00;;
59960;SDS011;55902;-37.980;-63.602;2022-08-24T17:33:06;2.95;;;0.90;;
59960;SDS011;55902;-37.980;-63.602;2022-08-24T17:35:34;2.65;;;0.80;;
59960;SDS011;55902;-37.980;-63.602;2022-08-24T17:38:03;2.00;;;0.90;;
59960;SDS011;55902;-37.980;-63.602;2022-08-24T17:40:30;5.40;;;1.90;;
59960;SDS011;55902;-37.980;-63.602;2022-08-24T17:42:58;2.85;;;1.50;;
59960;SDS011;55902;-37.980;-63.602;2022-08-24T17:45:25;2.70;;;1.08;;
59960;SDS011;55902;-37.980;-63.602;2022-08-24T17:47:52;2.55;;;1.50;;
59960;SDS011;55902;-37.980;-63.602;2022-08-24T17:50:19;3.05;;;1.35;;
59960;SDS011;55902;-37.980;-63.602;2022-08-24T18:02:54;3.30;;;0.77;;
59960;SDS011;55902;-37.980;-63.602;2022-08-24T18:05:20;4.25;;;1.90;;
59960;SDS011;55902;-37.980;-63.602;2022-08-24T18:07:48;3.33;;;1.20;;
59960;SDS011;55902;-37.980;-63.602;2022-08-24T18:10:18;1.50;;;1.00;;
59960;SDS011;55902;-37.980;-63.602;2022-08-24T18:12:52;2.20;;;0.70;;
59960;SDS011;55902;-37.980;-63.602;2022-08-24T18:15:20;1.30;;;0.80;;
59960;SDS011;55902;-37.980;-63.602;2022-08-24T18:17:48;1.67;;;0.80;;
59960;SDS011;55902;-37.980;-63.602;2022-08-24T18:20:19;1.80;;;1.00;;
59960;SDS011;55902;-37.980;-63.602;2022-08-24T18:22:50;2.45;;;1.10;;
59960;SDS011;55902;-37.980;-63.602;2022-08-24T18:25:18;2.00;;;0.90;;
59960;SDS011;55902;-37.980;-63.602;2022-08-24T18:28:05;1.70;;;0.73;;
59960;SDS011;55902;-37.980;-63.602;2022-08-24T18:30:33;1.60;;;0.70;;
59960;SDS011;55902;-37.980;-63.602;2022-08-24T18:33:01;1.55;;;0.80;;
59960;SDS011;55902;-37.980;-63.602;2022-08-24T18:35:28;1.77;;;0.88;;
59960;SDS011;55902;-37.980;-63.602;2022-08-24T18:37:57;1.98;;;0.70;;
59960;SDS011;55902;-37.980;-63.602;2022-08-24T18:40:23;2.28;;;0.90;;
59960;SDS011;55902;-37.980;-63.602;2022-08-24T18:42:53;1.73;;;0.70;;
59960;SDS011;55902;-37.980;-63.602;2022-08-24T18:45:21;2.03;;;0.75;;
59960;SDS011;55902;-37.980;-63.602;2022-08-24T18:47:50;1.58;;;0.75;;
59960;SDS011;55902;-37.980;-63.602;2022-08-24T18:50:17;2.00;;;0.85;;
59960;SDS011;55902;-37.980;-63.602;2022-08-24T18:52:44;2.42;;;0.75;;
59960;SDS011;55902;-37.980;-63.602;2022-08-24T18:55:10;2.47;;;0.90;;
59960;SDS011;55902;-37.980;-63.602;2022-08-24T18:57:38;3.08;;;0.90;;
59960;SDS011;55902;-37.980;-63.602;2022-08-24T19:00:05;6.38;;;1.10;;
59960;SDS011;55902;-37.980;-63.602;2022-08-24T19:02:36;1.90;;;0.90;;
59960;SDS011;55902;-37.980;-63.602;2022-08-24T19:05:09;1.83;;;0.70;;
59960;SDS011;55902;-37.980;-63.602;2022-08-24T19:07:40;5.75;;;1.02;;
59960;SDS011;55902;-37.980;-63.602;2022-08-24T19:10:12;1.50;;;1.10;;
59960;SDS011;55902;-37.980;-63.602;2022-08-24T19:12:46;1.48;;;0.90;;
59960;SDS011;55902;-37.980;-63.602;2022-08-24T19:15:17;2.38;;;0.70;;
59960;SDS011;55902;-37.980;-63.602;2022-08-24T19:17:44;5.85;;;1.30;;
59960;SDS011;55902;-37.980;-63.602;2022-08-24T19:20:32;19.42;;;2.08;;
59960;SDS011;55902;-37.980;-63.602;2022-08-24T19:23:05;6.22;;;1.20;;
59960;SDS011;55902;-37.980;-63.602;2022-08-24T19:25:35;2.97;;;0.90;;
59960;SDS011;55902;-37.980;-63.602;2022-08-24T19:28:09;2.90;;;0.93;;
59960;SDS011;55902;-37.980;-63.602;2022-08-24T19:30:36;1.83;;;0.80;;
59960;SDS011;55902;-37.980;-63.602;2022-08-24T19:33:07;5.00;;;1.30;;
59960;SDS011;55902;-37.980;-63.602;2022-08-24T19:35:35;3.72;;;0.90;;
59960;SDS011;55902;-37.980;-63.602;2022-08-24T19:38:02;2.90;;;0.90;;
59960;SDS011;55902;-37.980;-63.602;2022-08-24T19:40:30;2.95;;;0.85;;
59960;SDS011;55902;-37.980;-63.602;2022-08-24T19:42:58;1.92;;;0.98;;
59960;SDS011;55902;-37.980;-63.602;2022-08-24T19:45:27;1.50;;;0.85;;
59960;SDS011;55902;-37.980;-63.602;2022-08-24T19:48:12;1.17;;;0.70;;
59960;SDS011;55902;-37.980;-63.602;2022-08-24T19:50:39;1.83;;;0.80;;
59960;SDS011;55902;-37.980;-63.602;2022-08-24T19:53:06;3.22;;;0.85;;
59960;SDS011;55902;-37.980;-63.602;2022-08-24T19:55:37;3.55;;;0.80;;